sensor_id;sensor_type;location;lat;lon;timestamp;pressure;altitude;pressure_sealevel;temperature;humidity
48404;BME280;34202;52.536;6.042;2023-01-30T00:02:27;101657.98;;;5.50;100.00
48404;BME280;34202;52.536;6.042;2023-01-30T00:07:27;101655.92;;;5.54;100.00
48404;BME280;34202;52.536;6.042;2023-01-30T00:12:27;101643.29;;;5.57;100.00
48404;BME280;34202;52.536;6.042;2023-01-30T00:17:28;101634.74;;;5.60;100.00
48404;BME280;34202;52.536;6.042;2023-01-30T00:22:28;101623.81;;;5.63;100.00
48404;BME280;34202;52.536;6.042;2023-01-30T00:27:28;101619.41;;;5.65;100.00
48404;BME280;34202;52.536;6.042;2023-01-30T00:32:29;101603.03;;;5.66;100.00
48404;BME280;34202;52.536;6.042;2023-01-30T00:37:29;101565.69;;;5.69;100.00
48404;BME280;34202;52.536;6.042;2023-01-30T00:42:30;101547.08;;;5.71;100.00
48404;BME280;34202;52.536;6.042;2023-01-30T00:47:49;101542.11;;;5.72;100.00
48404;BME280;34202;52.536;6.042;2023-01-30T00:52:49;101536.14;;;5.73;100.00
48404;BME280;34202;52.536;6.042;2023-01-30T00:57:50;101526.02;;;5.75;100.00
48404;BME280;34202;52.536;6.042;2023-01-30T01:02:50;101508.16;;;5.78;100.00
48404;BME280;34202;52.536;6.042;2023-01-30T01:07:50;101493.61;;;5.81;100.00
48404;BME280;34202;52.536;6.042;2023-01-30T01:12:51;101488.77;;;5.86;100.00
48404;BME280;34202;52.536;6.042;2023-01-30T01:17:52;101475.25;;;5.90;100.00
48404;BME280;34202;52.536;6.042;2023-01-30T01:22:54;101474.93;;;5.95;100.00
48404;BME280;34202;52.536;6.042;2023-01-30T01:27:55;101476.48;;;5.99;100.00
48404;BME280;34202;52.536;6.042;2023-01-30T01:32:55;101486.77;;;6.03;100.00
48404;BME280;34202;52.536;6.042;2023-01-30T01:37:56;101481.63;;;6.04;100.00
48404;BME280;34202;52.536;6.042;2023-01-30T01:42:56;101482.34;;;6.04;100.00
48404;BME280;34202;52.536;6.042;2023-01-30T01:48:04;101478.11;;;6.07;100.00
48404;BME280;34202;52.536;6.042;2023-01-30T01:53:05;101477.35;;;6.09;100.00
48404;BME280;34202;52.536;6.042;2023-01-30T01:58:11;101469.31;;;6.12;100.00
48404;BME280;34202;52.536;6.042;2023-01-30T02:03:16;101464.22;;;6.15;100.00
48404;BME280;34202;52.536;6.042;2023-01-30T02:08:22;101459.67;;;6.18;100.00
48404;BME280;34202;52.536;6.042;2023-01-30T02:13:26;101451.99;;;6.21;100.00
48404;BME280;34202;52.536;6.042;2023-01-30T02:18:28;101456.73;;;6.24;100.00
48404;BME280;34202;52.536;6.042;2023-01-30T02:34:14;101449.32;;;6.29;100.00
48404;BME280;34202;52.536;6.042;2023-01-30T02:39:59;101451.99;;;6.31;100.00
48404;BME280;34202;52.536;6.042;2023-01-30T02:45:23;101451.50;;;6.32;100.00
48404;BME280;34202;52.536;6.042;2023-01-30T02:50:32;101442.86;;;6.33;100.00
48404;BME280;34202;52.536;6.042;2023-01-30T02:55:34;101446.38;;;6.34;100.00
48404;BME280;34202;52.536;6.042;2023-01-30T03:06:13;101435.73;;;6.35;100.00
48404;BME280;34202;52.536;6.042;2023-01-30T03:11:21;101431.96;;;6.37;100.00
48404;BME280;34202;52.536;6.042;2023-01-30T03:16:38;101429.38;;;6.37;100.00
48404;BME280;34202;52.536;6.042;2023-01-30T03:21:42;101426.98;;;6.38;100.00
48404;BME280;34202;52.536;6.042;2023-01-30T03:26:51;101420.80;;;6.39;100.00
48404;BME280;34202;52.536;6.042;2023-01-30T03:31:53;101417.52;;;6.39;100.00
48404;BME280;34202;52.536;6.042;2023-01-30T03:36:55;101412.36;;;6.40;100.00
48404;BME280;34202;52.536;6.042;2023-01-30T03:41:56;101407.55;;;6.41;100.00
48404;BME280;34202;52.536;6.042;2023-01-30T03:46:56;101409.81;;;6.42;100.00
48404;BME280;34202;52.536;6.042;2023-01-30T03:51:57;101419.95;;;6.45;100.00
48404;BME280;34202;52.536;6.042;2023-01-30T03:56:57;101423.15;;;6.47;100.00
48404;BME280;34202;52.536;6.042;2023-01-30T04:01:57;101422.69;;;6.49;100.00
48404;BME280;34202;52.536;6.042;2023-01-30T04:06:58;101424.46;;;6.51;100.00
48404;BME280;34202;52.536;6.042;2023-01-30T04:11:58;101423.14;;;6.53;100.00
48404;BME280;34202;52.536;6.042;2023-01-30T04:16:58;101420.49;;;6.57;100.00
48404;BME280;34202;52.536;6.042;2023-01-30T04:21:59;101411.44;;;6.60;100.00
48404;BME280;34202;52.536;6.042;2023-01-30T04:26:59;101406.33;;;6.62;100.00
48404;BME280;34202;52.536;6.042;2023-01-30T04:31:59;101406.67;;;6.62;100.00
48404;BME280;34202;52.536;6.042;2023-01-30T04:37:03;101405.83;;;6.63;100.00
48404;BME280;34202;52.536;6.042;2023-01-30T04:42:03;101410.16;;;6.63;100.00
48404;BME280;34202;52.536;6.042;2023-01-30T04:47:03;101415.02;;;6.64;100.00
48404;BME280;34202;52.536;6.042;2023-01-30T04:52:04;101406.20;;;6.64;100.00
48404;BME280;34202;52.536;6.042;2023-01-30T04:57:05;101407.19;;;6.62;100.00
48404;BME280;34202;52.536;6.042;2023-01-30T05:02:05;101418.55;;;6.61;100.00
48404;BME280;34202;52.536;6.042;2023-01-30T05:07:05;101424.54;;;6.58;100.00
48404;BME280;34202;52.536;6.042;2023-01-30T05:12:06;101418.92;;;6.56;100.00
48404;BME280;34202;52.536;6.042;2023-01-30T05:17:06;101416.59;;;6.54;100.00
48404;BME280;34202;52.536;6.042;2023-01-30T05:22:07;101420.55;;;6.52;100.00
48404;BME280;34202;52.536;6.042;2023-01-30T05:27:07;101431.86;;;6.50;100.00
48404;BME280;34202;52.536;6.042;2023-01-30T05:32:13;101431.02;;;6.45;100.00
48404;BME280;34202;52.536;6.042;2023-01-30T05:37:14;101437.56;;;6.39;100.00
48404;BME280;34202;52.536;6.042;2023-01-30T05:42:14;101431.84;;;6.33;100.00
48404;BME280;34202;52.536;6.042;2023-01-30T05:47:15;101435.61;;;6.27;100.00
48404;BME280;34202;52.536;6.042;2023-01-30T05:52:15;101438.35;;;6.21;100.00
48404;BME280;34202;52.536;6.042;2023-01-30T05:57:15;101445.05;;;6.15;100.00
48404;BME280;34202;52.536;6.042;2023-01-30T06:02:16;101444.73;;;6.11;100.00
48404;BME280;34202;52.536;6.042;2023-01-30T06:07:16;101440.31;;;6.08;100.00
48404;BME280;34202;52.536;6.042;2023-01-30T06:12:17;101453.48;;;6.04;100.00
48404;BME280;34202;52.536;6.042;2023-01-30T06:17:17;101459.89;;;5.99;100.00
48404;BME280;34202;52.536;6.042;2023-01-30T06:22:17;101461.91;;;5.93;100.00
48404;BME280;34202;52.536;6.042;2023-01-30T06:27:18;101452.84;;;5.86;100.00
48404;BME280;34202;52.536;6.042;2023-01-30T06:32:18;101455.15;;;5.78;100.00
48404;BME280;34202;52.536;6.042;2023-01-30T06:37:18;101461.43;;;5.71;100.00
48404;BME280;34202;52.536;6.042;2023-01-30T06:42:19;101462.84;;;5.62;100.00
48404;BME280;34202;52.536;6.042;2023-01-30T06:47:19;101473.84;;;5.56;100.00
48404;BME280;34202;52.536;6.042;2023-01-30T06:52:19;101477.11;;;5.51;100.00
48404;BME280;34202;52.536;6.042;2023-01-30T06:57:20;101479.63;;;5.44;100.00
48404;BME280;34202;52.536;6.042;2023-01-30T07:02:20;101483.57;;;5.39;100.00
48404;BME280;34202;52.536;6.042;2023-01-30T07:07:20;101491.39;;;5.36;100.00
48404;BME280;34202;52.536;6.042;2023-01-30T07:12:21;101503.54;;;5.34;100.00
48404;BME280;34202;52.536;6.042;2023-01-30T07:17:22;101501.41;;;5.32;100.00
48404;BME280;34202;52.536;6.042;2023-01-30T07:22:22;101506.58;;;5.32;100.00
48404;BME280;34202;52.536;6.042;2023-01-30T07:27:23;101505.86;;;5.31;100.00
48404;BME280;34202;52.536;6.042;2023-01-30T07:32:23;101509.13;;;5.31;100.00
48404;BME280;34202;52.536;6.042;2023-01-30T07:37:24;101506.63;;;5.33;100.00
48404;BME280;34202;52.536;6.042;2023-01-30T07:42:24;101503.94;;;5.35;100.00
48404;BME280;34202;52.536;6.042;2023-01-30T07:47:24;101514.23;;;5.38;100.00
48404;BME280;34202;52.536;6.042;2023-01-30T07:52:25;101523.44;;;5.39;100.00
48404;BME280;34202;52.536;6.042;2023-01-30T07:57:25;101518.73;;;5.38;100.00
48404;BME280;34202;52.536;6.042;2023-01-30T08:02:25;101530.61;;;5.37;100.00
48404;BME280;34202;52.536;6.042;2023-01-30T08:07:26;101539.73;;;5.36;100.00
48404;BME280;34202;52.536;6.042;2023-01-30T08:12:26;101542.67;;;5.36;100.00
48404;BME280;34202;52.536;6.042;2023-01-30T08:17:28;101536.71;;;5.39;100.00
48404;BME280;34202;52.536;6.042;2023-01-30T08:22:28;101542.17;;;5.41;100.00
48404;BME280;34202;52.536;6.042;2023-01-30T08:27:28;101544.76;;;5.46;100.00
48404;BME280;34202;52.536;6.042;2023-01-30T08:32:29;101548.18;;;5.49;100.00
48404;BME280;34202;52.536;6.042;2023-01-30T08:37:29;101547.67;;;5.54;100.00
48404;BME280;34202;52.536;6.042;2023-01-30T08:42:29;101562.64;;;5.57;100.00
48404;BME280;34202;52.536;6.042;2023-01-30T08:47:30;101565.23;;;5.62;100.00
48404;BME280;34202;52.536;6.042;2023-01-30T08:52:31;101569.02;;;5.67;100.00
48404;BME280;34202;52.536;6.042;2023-01-30T08:57:32;101574.45;;;5.73;100.00
48404;BME280;34202;52.536;6.042;2023-01-30T09:02:32;101583.80;;;5.78;100.00
48404;BME280;34202;52.536;6.042;2023-01-30T09:07:33;101581.06;;;5.83;100.00
48404;BME280;34202;52.536;6.042;2023-01-30T09:12:33;101584.54;;;5.88;100.00
48404;BME280;34202;52.536;6.042;2023-01-30T09:17:34;101587.81;;;5.93;100.00
48404;BME280;34202;52.536;6.042;2023-01-30T09:22:34;101581.29;;;5.97;100.00
48404;BME280;34202;52.536;6.042;2023-01-30T09:27:34;101575.73;;;6.01;100.00
48404;BME280;34202;52.536;6.042;2023-01-30T09:32:36;101581.91;;;6.05;100.00
48404;BME280;34202;52.536;6.042;2023-01-30T09:37:36;101592.07;;;6.09;100.00
48404;BME280;34202;52.536;6.042;2023-01-30T09:53:28;101596.79;;;6.24;100.00
48404;BME280;34202;52.536;6.042;2023-01-30T09:58:53;101602.52;;;6.30;100.00
48404;BME280;34202;52.536;6.042;2023-01-30T10:20:10;101616.13;;;6.43;100.00
48404;BME280;34202;52.536;6.042;2023-01-30T10:25:28;101615.85;;;6.49;100.00
48404;BME280;34202;52.536;6.042;2023-01-30T10:30:30;101625.36;;;6.54;100.00
48404;BME280;34202;52.536;6.042;2023-01-30T10:35:35;101626.48;;;6.56;100.00
48404;BME280;34202;52.536;6.042;2023-01-30T10:40:41;101638.95;;;6.62;100.00
48404;BME280;34202;52.536;6.042;2023-01-30T10:46:22;101635.16;;;6.72;100.00
48404;BME280;34202;52.536;6.042;2023-01-30T10:51:48;101640.29;;;6.80;100.00
48404;BME280;34202;52.536;6.042;2023-01-30T11:01:58;101640.91;;;6.93;100.00
48404;BME280;34202;52.536;6.042;2023-01-30T11:07:00;101642.14;;;6.99;99.59
48404;BME280;34202;52.536;6.042;2023-01-30T11:12:01;101639.82;;;7.02;99.68
48404;BME280;34202;52.536;6.042;2023-01-30T11:17:01;101644.27;;;7.05;99.63
48404;BME280;34202;52.536;6.042;2023-01-30T11:22:04;101656.07;;;7.07;99.10
48404;BME280;34202;52.536;6.042;2023-01-30T11:32:14;101672.58;;;7.13;98.60
48404;BME280;34202;52.536;6.042;2023-01-30T11:37:26;101670.27;;;7.22;97.82
48404;BME280;34202;52.536;6.042;2023-01-30T11:42:30;101670.30;;;7.28;97.44
48404;BME280;34202;52.536;6.042;2023-01-30T11:47:30;101684.52;;;7.33;97.09
48404;BME280;34202;52.536;6.042;2023-01-30T11:52:35;101693.59;;;7.41;96.79
48404;BME280;34202;52.536;6.042;2023-01-30T11:57:46;101701.24;;;7.47;96.79
48404;BME280;34202;52.536;6.042;2023-01-30T12:02:48;101710.61;;;7.53;96.72
48404;BME280;34202;52.536;6.042;2023-01-30T12:07:50;101707.64;;;7.58;95.66
48404;BME280;34202;52.536;6.042;2023-01-30T12:12:54;101708.23;;;7.60;95.84
48404;BME280;34202;52.536;6.042;2023-01-30T12:18:09;101716.78;;;7.67;95.35
48404;BME280;34202;52.536;6.042;2023-01-30T12:23:29;101720.79;;;7.73;94.87
48404;BME280;34202;52.536;6.042;2023-01-30T12:28:47;101721.80;;;7.72;94.33
48404;BME280;34202;52.536;6.042;2023-01-30T12:33:51;101723.64;;;7.70;94.38
48404;BME280;34202;52.536;6.042;2023-01-30T13:01:00;101755.66;;;7.69;93.23
48404;BME280;34202;52.536;6.042;2023-01-30T13:06:31;101777.98;;;7.68;92.95
48404;BME280;34202;52.536;6.042;2023-01-30T13:11:49;101783.13;;;7.61;92.37
48404;BME280;34202;52.536;6.042;2023-01-30T13:17:04;101788.40;;;7.53;92.72
48404;BME280;34202;52.536;6.042;2023-01-30T13:27:23;101801.40;;;7.43;93.47
48404;BME280;34202;52.536;6.042;2023-01-30T13:32:34;101800.98;;;7.42;93.77
48404;BME280;34202;52.536;6.042;2023-01-30T13:37:36;101808.92;;;7.41;94.01
48404;BME280;34202;52.536;6.042;2023-01-30T13:58:41;101827.88;;;7.43;93.93
48404;BME280;34202;52.536;6.042;2023-01-30T14:03:45;101832.33;;;7.41;93.54
48404;BME280;34202;52.536;6.042;2023-01-30T14:13:58;101855.11;;;7.40;93.63
48404;BME280;34202;52.536;6.042;2023-01-30T14:19:18;101867.48;;;7.36;93.44
48404;BME280;34202;52.536;6.042;2023-01-30T14:24:21;101882.63;;;7.34;93.30
48404;BME280;34202;52.536;6.042;2023-01-30T14:34:42;101901.17;;;7.34;93.94
48404;BME280;34202;52.536;6.042;2023-01-30T14:39:50;101913.38;;;7.37;93.82
48404;BME280;34202;52.536;6.042;2023-01-30T14:45:09;101923.71;;;7.40;94.06
48404;BME280;34202;52.536;6.042;2023-01-30T14:50:18;101933.98;;;7.41;94.11
48404;BME280;34202;52.536;6.042;2023-01-30T14:55:22;101941.65;;;7.42;93.92
48404;BME280;34202;52.536;6.042;2023-01-30T15:00:29;101946.02;;;7.39;93.56
48404;BME280;34202;52.536;6.042;2023-01-30T15:05:33;101954.63;;;7.33;93.73
48404;BME280;34202;52.536;6.042;2023-01-30T15:10:59;101967.20;;;7.26;93.72
48404;BME280;34202;52.536;6.042;2023-01-30T15:32:12;102012.16;;;6.94;94.26
48404;BME280;34202;52.536;6.042;2023-01-30T15:37:39;102019.80;;;6.86;94.48
48404;BME280;34202;52.536;6.042;2023-01-30T15:42:45;102029.83;;;6.77;94.67
48404;BME280;34202;52.536;6.042;2023-01-30T15:53:38;102055.20;;;6.64;94.98
48404;BME280;34202;52.536;6.042;2023-01-30T15:58:41;102071.00;;;6.56;95.15
48404;BME280;34202;52.536;6.042;2023-01-30T16:03:42;102077.76;;;6.49;95.49
48404;BME280;34202;52.536;6.042;2023-01-30T16:08:54;102086.95;;;6.42;95.64
48404;BME280;34202;52.536;6.042;2023-01-30T16:13:55;102094.44;;;6.35;95.83
48404;BME280;34202;52.536;6.042;2023-01-30T16:18:59;102109.66;;;6.27;96.03
48404;BME280;34202;52.536;6.042;2023-01-30T16:24:05;102129.66;;;6.22;96.40
48404;BME280;34202;52.536;6.042;2023-01-30T16:29:17;102138.27;;;6.17;96.97
48404;BME280;34202;52.536;6.042;2023-01-30T16:39:36;102153.92;;;6.08;97.02
48404;BME280;34202;52.536;6.042;2023-01-30T16:44:37;102167.33;;;6.03;97.02
48404;BME280;34202;52.536;6.042;2023-01-30T16:49:41;102181.20;;;5.96;97.17
48404;BME280;34202;52.536;6.042;2023-01-30T16:54:46;102187.98;;;5.91;97.35
48404;BME280;34202;52.536;6.042;2023-01-30T16:59:47;102196.36;;;5.85;97.42
48404;BME280;34202;52.536;6.042;2023-01-30T17:04:48;102190.45;;;5.81;97.72
48404;BME280;34202;52.536;6.042;2023-01-30T17:09:48;102200.48;;;5.77;97.92
48404;BME280;34202;52.536;6.042;2023-01-30T17:14:48;102216.36;;;5.73;97.91
48404;BME280;34202;52.536;6.042;2023-01-30T17:19:49;102223.67;;;5.71;97.95
48404;BME280;34202;52.536;6.042;2023-01-30T17:24:49;102239.41;;;5.68;97.93
48404;BME280;34202;52.536;6.042;2023-01-30T17:29:49;102248.40;;;5.64;98.04
48404;BME280;34202;52.536;6.042;2023-01-30T17:34:50;102256.02;;;5.61;98.01
48404;BME280;34202;52.536;6.042;2023-01-30T17:39:50;102258.70;;;5.56;97.78
48404;BME280;34202;52.536;6.042;2023-01-30T17:44:51;102268.17;;;5.49;97.89
48404;BME280;34202;52.536;6.042;2023-01-30T17:49:51;102276.00;;;5.43;98.27
48404;BME280;34202;52.536;6.042;2023-01-30T17:54:52;102279.14;;;5.40;98.56
48404;BME280;34202;52.536;6.042;2023-01-30T17:59:52;102285.95;;;5.38;99.07
48404;BME280;34202;52.536;6.042;2023-01-30T18:04:54;102285.02;;;5.37;99.46
48404;BME280;34202;52.536;6.042;2023-01-30T18:09:54;102296.11;;;5.34;99.30
48404;BME280;34202;52.536;6.042;2023-01-30T18:14:55;102300.20;;;5.31;98.95
48404;BME280;34202;52.536;6.042;2023-01-30T18:19:55;102303.36;;;5.24;99.21
48404;BME280;34202;52.536;6.042;2023-01-30T18:24:55;102301.77;;;5.17;99.52
48404;BME280;34202;52.536;6.042;2023-01-30T18:29:56;102305.39;;;5.10;99.64
48404;BME280;34202;52.536;6.042;2023-01-30T18:34:56;102311.83;;;5.05;99.93
48404;BME280;34202;52.536;6.042;2023-01-30T18:39:56;102317.31;;;5.01;100.00
48404;BME280;34202;52.536;6.042;2023-01-30T18:44:57;102319.38;;;4.97;99.98
48404;BME280;34202;52.536;6.042;2023-01-30T18:49:57;102316.98;;;4.95;100.00
48404;BME280;34202;52.536;6.042;2023-01-30T18:54:57;102327.59;;;4.93;100.00
48404;BME280;34202;52.536;6.042;2023-01-30T18:59:58;102327.66;;;4.91;100.00
48404;BME280;34202;52.536;6.042;2023-01-30T19:04:58;102324.61;;;4.89;100.00
48404;BME280;34202;52.536;6.042;2023-01-30T19:09:58;102340.35;;;4.86;100.00
48404;BME280;34202;52.536;6.042;2023-01-30T19:14:59;102342.89;;;4.86;100.00
48404;BME280;34202;52.536;6.042;2023-01-30T19:20:00;102343.64;;;4.87;100.00
48404;BME280;34202;52.536;6.042;2023-01-30T19:25:01;102356.35;;;4.89;100.00
48404;BME280;34202;52.536;6.042;2023-01-30T19:30:02;102357.38;;;4.89;100.00
48404;BME280;34202;52.536;6.042;2023-01-30T19:35:03;102365.48;;;4.88;100.00
48404;BME280;34202;52.536;6.042;2023-01-30T19:40:06;102366.31;;;4.85;100.00
48404;BME280;34202;52.536;6.042;2023-01-30T19:45:09;102362.15;;;4.81;100.00
48404;BME280;34202;52.536;6.042;2023-01-30T19:50:09;102367.36;;;4.79;100.00
48404;BME280;34202;52.536;6.042;2023-01-30T19:55:10;102373.52;;;4.75;100.00
48404;BME280;34202;52.536;6.042;2023-01-30T20:00:11;102378.68;;;4.71;100.00
48404;BME280;34202;52.536;6.042;2023-01-30T20:05:11;102381.36;;;4.67;100.00
48404;BME280;34202;52.536;6.042;2023-01-30T20:10:12;102382.83;;;4.62;100.00
48404;BME280;34202;52.536;6.042;2023-01-30T20:15:12;102391.86;;;4.57;100.00
48404;BME280;34202;52.536;6.042;2023-01-30T20:20:12;102393.00;;;4.53;100.00
48404;BME280;34202;52.536;6.042;2023-01-30T20:25:13;102388.14;;;4.49;100.00
48404;BME280;34202;52.536;6.042;2023-01-30T20:30:13;102388.95;;;4.45;100.00
48404;BME280;34202;52.536;6.042;2023-01-30T20:35:14;102405.73;;;4.43;100.00
48404;BME280;34202;52.536;6.042;2023-01-30T20:40:14;102414.54;;;4.40;100.00
48404;BME280;34202;52.536;6.042;2023-01-30T20:45:15;102414.05;;;4.37;100.00
48404;BME280;34202;52.536;6.042;2023-01-30T20:50:16;102415.75;;;4.34;100.00
48404;BME280;34202;52.536;6.042;2023-01-30T20:55:16;102418.30;;;4.31;100.00
48404;BME280;34202;52.536;6.042;2023-01-30T21:00:17;102417.86;;;4.26;100.00
48404;BME280;34202;52.536;6.042;2023-01-30T21:05:17;102416.06;;;4.22;100.00
48404;BME280;34202;52.536;6.042;2023-01-30T21:10:18;102418.19;;;4.17;100.00
48404;BME280;34202;52.536;6.042;2023-01-30T21:15:18;102409.98;;;4.12;100.00
48404;BME280;34202;52.536;6.042;2023-01-30T21:20:18;102396.20;;;4.06;100.00
48404;BME280;34202;52.536;6.042;2023-01-30T21:25:19;102402.25;;;4.00;100.00
48404;BME280;34202;52.536;6.042;2023-01-30T21:30:19;102407.17;;;3.96;100.00
48404;BME280;34202;52.536;6.042;2023-01-30T21:35:19;102405.67;;;3.91;100.00
48404;BME280;34202;52.536;6.042;2023-01-30T21:40:20;102409.33;;;3.88;100.00
48404;BME280;34202;52.536;6.042;2023-01-30T21:45:39;102416.08;;;3.86;100.00
48404;BME280;34202;52.536;6.042;2023-01-30T21:50:39;102419.14;;;3.83;100.00
48404;BME280;34202;52.536;6.042;2023-01-30T21:55:39;102419.13;;;3.80;100.00
48404;BME280;34202;52.536;6.042;2023-01-30T22:00:40;102419.14;;;3.77;100.00
48404;BME280;34202;52.536;6.042;2023-01-30T22:05:42;102410.18;;;3.74;100.00
48404;BME280;34202;52.536;6.042;2023-01-30T22:10:44;102415.39;;;3.72;100.00
48404;BME280;34202;52.536;6.042;2023-01-30T22:15:44;102417.85;;;3.70;100.00
48404;BME280;34202;52.536;6.042;2023-01-30T22:20:45;102413.45;;;3.68;100.00
48404;BME280;34202;52.536;6.042;2023-01-30T22:25:53;102412.29;;;3.66;100.00
48404;BME280;34202;52.536;6.042;2023-01-30T22:31:05;102416.99;;;3.64;100.00
48404;BME280;34202;52.536;6.042;2023-01-30T22:36:06;102418.40;;;3.62;100.00
48404;BME280;34202;52.536;6.042;2023-01-30T22:41:09;102417.72;;;3.59;100.00
48404;BME280;34202;52.536;6.042;2023-01-30T22:46:15;102418.07;;;3.56;100.00
48404;BME280;34202;52.536;6.042;2023-01-30T22:51:21;102408.73;;;3.53;100.00
48404;BME280;34202;52.536;6.042;2023-01-30T22:56:27;102405.92;;;3.49;100.00
48404;BME280;34202;52.536;6.042;2023-01-30T23:01:30;102401.13;;;3.46;100.00
48404;BME280;34202;52.536;6.042;2023-01-30T23:06:30;102407.38;;;3.44;100.00
48404;BME280;34202;52.536;6.042;2023-01-30T23:11:46;102418.45;;;3.43;100.00
48404;BME280;34202;52.536;6.042;2023-01-30T23:17:07;102418.55;;;3.41;100.00
48404;BME280;34202;52.536;6.042;2023-01-30T23:22:26;102422.20;;;3.39;100.00
48404;BME280;34202;52.536;6.042;2023-01-30T23:27:26;102413.31;;;3.37;100.00
48404;BME280;34202;52.536;6.042;2023-01-30T23:32:26;102415.74;;;3.35;100.00
48404;BME280;34202;52.536;6.042;2023-01-30T23:37:27;102414.72;;;3.33;100.00
48404;BME280;34202;52.536;6.042;2023-01-30T23:42:53;102407.83;;;3.29;100.00
48404;BME280;34202;52.536;6.042;2023-01-30T23:47:53;102408.27;;;3.25;100.00
48404;BME280;34202;52.536;6.042;2023-01-30T23:52:53;102408.85;;;3.20;100.00
48404;BME280;34202;52.536;6.042;2023-01-30T23:57:54;102413.10;;;3.14;100.00
